createdAt,value
2023-01-19T00:00:16.600Z,-1.84
2023-01-19T00:01:17.186Z,-1.86
2023-01-19T00:02:16.871Z,-1.88
2023-01-19T00:03:16.483Z,-1.88
2023-01-19T00:04:17.030Z,-1.87
2023-01-19T00:05:16.535Z,-1.88
2023-01-19T00:06:17.043Z,-1.90
2023-01-19T00:07:16.618Z,-1.91
2023-01-19T00:08:17.109Z,-1.92
2023-01-19T00:09:16.663Z,-1.94
2023-01-19T00:10:17.148Z,-2.00
2023-01-19T00:11:16.624Z,-1.95
2023-01-19T00:12:16.501Z,-1.94
2023-01-19T00:13:17.027Z,-1.92
2023-01-19T00:14:16.576Z,-1.94
2023-01-19T00:15:17.134Z,-1.90
2023-01-19T00:16:16.681Z,-1.84
2023-01-19T00:17:17.270Z,-1.79
2023-01-19T00:18:16.783Z,-1.81
2023-01-19T00:19:17.294Z,-1.83
2023-01-19T00:20:16.810Z,-1.83
2023-01-19T00:21:17.367Z,-1.80
2023-01-19T00:22:16.686Z,-1.81
2023-01-19T00:23:17.324Z,-1.83
2023-01-19T00:24:16.826Z,-1.84
2023-01-19T00:25:16.352Z,-1.83
2023-01-19T00:26:16.870Z,-1.84
2023-01-19T00:27:16.410Z,-1.86
2023-01-19T00:28:16.960Z,-1.87
2023-01-19T00:29:16.482Z,-1.87
2023-01-19T00:30:17.019Z,-1.84
2023-01-19T00:31:16.650Z,-1.84
2023-01-19T00:32:17.271Z,-1.83
2023-01-19T00:33:16.774Z,-1.84
2023-01-19T00:34:17.276Z,-1.83
2023-01-19T00:35:16.778Z,-1.86
2023-01-19T00:36:17.297Z,-1.90
2023-01-19T00:37:16.807Z,-1.88
2023-01-19T00:38:16.352Z,-1.88
2023-01-19T00:39:16.875Z,-1.88
2023-01-19T00:40:16.400Z,-1.90
2023-01-19T00:41:16.944Z,-1.90
2023-01-19T00:42:16.320Z,-1.92
2023-01-19T00:43:16.861Z,-1.95
2023-01-19T00:44:16.397Z,-1.97
2023-01-19T00:45:16.899Z,-1.95
2023-01-19T00:46:16.395Z,-1.95
2023-01-19T00:47:16.906Z,-1.95
2023-01-19T00:48:16.459Z,-1.98
2023-01-19T00:49:16.938Z,-2.00
2023-01-19T00:50:16.661Z,-2.02
2023-01-19T00:51:17.253Z,-2.01
2023-01-19T00:52:16.837Z,-2.01
2023-01-19T00:53:16.345Z,-2.08
2023-01-19T00:54:16.866Z,-2.09
2023-01-19T00:55:16.361Z,-2.09
2023-01-19T00:56:16.895Z,-2.09
2023-01-19T00:57:16.400Z,-2.08
2023-01-19T00:58:16.940Z,-2.12
2023-01-19T00:59:16.475Z,-2.14
2023-01-19T01:00:17.000Z,-2.15
2023-01-19T01:01:16.610Z,-2.17
2023-01-19T01:02:17.470Z,-2.21
2023-01-19T01:03:16.502Z,-2.21
2023-01-19T01:04:17.096Z,-2.21
2023-01-19T01:05:16.594Z,-2.23
2023-01-19T01:06:17.111Z,-2.26
2023-01-19T01:07:16.602Z,-2.26
2023-01-19T01:08:17.097Z,-2.29
2023-01-19T01:09:16.611Z,-2.29
2023-01-19T01:10:17.127Z,-2.31
2023-01-19T01:11:16.631Z,-2.32
2023-01-19T01:12:17.202Z,-2.35
2023-01-19T01:13:20.629Z,-2.38
2023-01-19T01:14:16.406Z,-2.38
2023-01-19T01:15:17.113Z,-2.39
2023-01-19T01:16:16.616Z,-2.42
2023-01-19T01:17:17.201Z,-2.43
2023-01-19T01:18:16.695Z,-2.48
2023-01-19T01:19:17.209Z,-2.48
2023-01-19T01:20:16.768Z,-2.48
2023-01-19T01:21:17.263Z,-2.49
2023-01-19T01:22:16.491Z,-2.49
2023-01-19T01:23:17.013Z,-2.53
2023-01-19T01:24:16.514Z,-2.53
2023-01-19T01:25:17.026Z,-2.53
2023-01-19T01:26:16.532Z,-2.54
2023-01-19T01:27:17.023Z,-2.56
2023-01-19T01:28:16.505Z,-2.57
2023-01-19T01:29:17.187Z,-2.62
2023-01-19T01:30:16.719Z,-2.64
2023-01-19T01:31:17.298Z,-2.64
2023-01-19T01:32:16.859Z,-2.69
2023-01-19T01:33:16.362Z,-2.71
2023-01-19T01:34:16.893Z,-2.70
2023-01-19T01:35:16.431Z,-2.71
2023-01-19T01:36:16.940Z,-2.73
2023-01-19T01:37:16.428Z,-2.71
2023-01-19T01:38:16.933Z,-2.69
2023-01-19T01:39:16.472Z,-2.73
2023-01-19T01:40:16.968Z,-2.76
2023-01-19T01:41:16.473Z,-2.74
2023-01-19T01:42:16.795Z,-2.77
2023-01-19T01:43:17.289Z,-2.80
2023-01-19T01:44:16.786Z,-2.82
2023-01-19T01:45:17.308Z,-2.85
2023-01-19T01:46:16.921Z,-2.85
2023-01-19T01:47:16.950Z,-2.85
2023-01-19T01:48:16.465Z,-2.87
2023-01-19T01:49:16.978Z,-2.87
2023-01-19T01:50:16.536Z,-2.87
2023-01-19T01:51:17.032Z,-2.91
2023-01-19T01:52:16.679Z,-2.91
2023-01-19T01:53:17.163Z,-2.94
2023-01-19T01:54:16.675Z,-2.94
2023-01-19T01:55:17.207Z,-2.92
2023-01-19T01:56:16.696Z,-2.94
2023-01-19T01:57:17.234Z,-2.94
2023-01-19T01:58:16.779Z,-2.92
2023-01-19T01:59:17.326Z,-2.87
2023-01-19T02:00:16.813Z,-2.87
2023-01-19T02:01:16.550Z,-2.87
2023-01-19T02:02:17.074Z,-2.91
2023-01-19T02:03:16.874Z,-2.91
2023-01-19T02:04:16.472Z,-2.92
2023-01-19T02:05:16.985Z,-2.95
2023-01-19T02:06:16.473Z,-2.92
2023-01-19T02:07:16.981Z,-2.95
2023-01-19T02:08:16.492Z,-2.95
2023-01-19T02:09:17.015Z,-2.95
2023-01-19T02:10:16.507Z,-2.97
2023-01-19T02:11:17.043Z,-2.98
2023-01-19T02:12:16.455Z,-3.01
2023-01-19T02:13:16.946Z,-3.04
2023-01-19T02:14:16.475Z,-3.04
2023-01-19T02:15:17.016Z,-3.04
2023-01-19T02:16:16.559Z,-3.04
2023-01-19T02:17:17.215Z,-3.05
2023-01-19T02:18:16.729Z,-3.04
2023-01-19T02:19:17.227Z,-3.08
2023-01-19T02:20:16.737Z,-2.98
2023-01-19T02:21:17.238Z,-2.92
2023-01-19T02:22:16.775Z,-2.94
2023-01-19T02:23:17.281Z,-2.94
2023-01-19T02:24:16.773Z,-2.95
2023-01-19T02:25:17.277Z,-2.99
2023-01-19T02:26:16.778Z,-2.99
2023-01-19T02:27:17.264Z,-2.97
2023-01-19T02:28:16.782Z,-3.02
2023-01-19T02:29:17.313Z,-3.05
2023-01-19T02:30:16.924Z,-3.08
2023-01-19T02:31:16.444Z,-3.11
2023-01-19T02:32:16.790Z,-3.13
2023-01-19T02:33:17.272Z,-3.16
2023-01-19T02:34:16.779Z,-3.13
2023-01-19T02:35:17.294Z,-3.09
2023-01-19T02:36:16.806Z,-3.12
2023-01-19T02:37:16.376Z,-3.15
2023-01-19T02:38:16.859Z,-3.13
2023-01-19T02:39:16.389Z,-3.13
2023-01-19T02:40:16.902Z,-3.18
2023-01-19T02:41:16.692Z,-3.19
2023-01-19T02:42:16.925Z,-3.20
2023-01-19T02:43:16.429Z,-3.19
2023-01-19T02:44:16.931Z,-3.22
2023-01-19T02:45:16.428Z,-3.25
2023-01-19T02:46:16.988Z,-3.26
2023-01-19T02:47:16.712Z,-3.27
2023-01-19T02:48:16.425Z,-3.30
2023-01-19T02:49:16.935Z,-3.33
2023-01-19T02:50:16.412Z,-3.36
2023-01-19T02:51:16.914Z,-3.39
2023-01-19T02:52:16.442Z,-3.41
2023-01-19T02:53:16.915Z,-3.48
2023-01-19T02:54:16.432Z,-3.47
2023-01-19T02:55:16.920Z,-3.53
2023-01-19T02:56:16.538Z,-3.55
2023-01-19T02:57:17.067Z,-3.54
2023-01-19T02:58:16.597Z,-3.55
2023-01-19T02:59:17.131Z,-3.54
2023-01-19T03:00:16.648Z,-3.58
2023-01-19T03:01:17.204Z,-3.57
2023-01-19T03:02:16.876Z,-3.58
2023-01-19T03:03:16.555Z,-3.55
2023-01-19T03:04:17.179Z,-3.58
2023-01-19T03:05:16.689Z,-3.55
2023-01-19T03:06:17.211Z,-3.61
2023-01-19T03:07:16.704Z,-3.63
2023-01-19T03:08:17.204Z,-3.63
2023-01-19T03:09:16.749Z,-3.64
2023-01-19T03:10:17.248Z,-3.65
2023-01-19T03:11:16.734Z,-3.68
2023-01-19T03:12:16.843Z,-3.70
2023-01-19T03:13:16.331Z,-3.68
2023-01-19T03:14:16.818Z,-3.70
2023-01-19T03:15:16.334Z,-3.70
2023-01-19T03:16:16.871Z,-3.70
2023-01-19T03:17:16.506Z,-3.74
2023-01-19T03:18:17.031Z,-3.70
2023-01-19T03:19:16.532Z,-3.72
2023-01-19T03:20:17.029Z,-3.71
2023-01-19T03:21:16.530Z,-3.74
2023-01-19T03:22:17.034Z,-3.74
2023-01-19T03:23:16.596Z,-3.75
2023-01-19T03:24:17.101Z,-3.74
2023-01-19T03:25:16.590Z,-3.68
2023-01-19T03:26:17.077Z,-3.67
2023-01-19T03:27:16.602Z,-3.70
2023-01-19T03:28:17.095Z,-3.68
2023-01-19T03:29:16.610Z,-3.67
2023-01-19T03:30:17.102Z,-3.67
2023-01-19T03:31:16.694Z,-3.58
2023-01-19T03:32:17.225Z,-3.57
2023-01-19T03:33:16.739Z,-3.58
2023-01-19T03:34:17.245Z,-3.58
2023-01-19T03:35:17.028Z,-3.60
2023-01-19T03:36:16.550Z,-3.60
2023-01-19T03:37:17.046Z,-3.64
2023-01-19T03:38:16.545Z,-3.63
2023-01-19T03:39:17.053Z,-3.65
2023-01-19T03:40:16.565Z,-3.65
2023-01-19T03:41:17.092Z,-3.64
2023-01-19T03:42:16.439Z,-3.64
2023-01-19T03:43:16.995Z,-3.61
2023-01-19T03:44:16.480Z,-3.58
2023-01-19T03:45:17.007Z,-3.57
2023-01-19T03:46:16.592Z,-3.53
2023-01-19T03:47:17.128Z,-3.53
2023-01-19T03:48:16.620Z,-3.55
2023-01-19T03:49:17.112Z,-3.58
2023-01-19T03:50:16.601Z,-3.58
2023-01-19T03:51:17.149Z,-3.58
2023-01-19T03:52:17.093Z,-3.58
2023-01-19T03:53:16.598Z,-3.58
2023-01-19T03:54:17.135Z,-3.58
2023-01-19T03:55:16.666Z,-3.60
2023-01-19T03:56:17.144Z,-3.57
2023-01-19T03:57:16.633Z,-3.60
2023-01-19T03:58:17.131Z,-3.57
2023-01-19T03:59:16.611Z,-3.60
2023-01-19T04:00:17.096Z,-3.61
2023-01-19T04:01:16.684Z,-3.60
2023-01-19T04:02:17.033Z,-3.53
2023-01-19T04:03:16.762Z,-3.50
2023-01-19T04:04:17.276Z,-3.54
2023-01-19T04:05:16.761Z,-3.51
2023-01-19T04:06:17.292Z,-3.53
2023-01-19T04:07:16.796Z,-3.53
2023-01-19T04:08:17.296Z,-3.53
2023-01-19T04:09:19.220Z,-3.50
2023-01-19T04:10:16.591Z,-3.47
2023-01-19T04:11:17.093Z,-3.47
2023-01-19T04:12:16.462Z,-3.44
2023-01-19T04:13:17.027Z,-3.47
2023-01-19T04:14:16.506Z,-3.46
2023-01-19T04:15:17.011Z,-3.48
2023-01-19T04:16:16.590Z,-3.53
2023-01-19T04:17:17.146Z,-3.51
2023-01-19T04:18:16.667Z,-3.53
2023-01-19T04:19:17.202Z,-3.53
2023-01-19T04:20:16.715Z,-3.50
2023-01-19T04:21:17.223Z,-3.46
2023-01-19T04:22:16.717Z,-3.48
2023-01-19T04:23:17.220Z,-3.44
2023-01-19T04:24:16.704Z,-3.44
2023-01-19T04:25:16.350Z,-3.36
2023-01-19T04:26:16.856Z,-3.33
2023-01-19T04:27:16.365Z,-3.20
2023-01-19T04:28:16.874Z,-3.18
2023-01-19T04:29:16.372Z,-3.18
2023-01-19T04:30:16.893Z,-3.26
2023-01-19T04:31:16.435Z,-3.30
2023-01-19T04:32:16.870Z,-3.36
2023-01-19T04:33:16.371Z,-3.40
2023-01-19T04:34:16.866Z,-3.41
2023-01-19T04:35:16.384Z,-3.39
2023-01-19T04:36:16.914Z,-3.37
2023-01-19T04:37:16.427Z,-3.25
2023-01-19T04:38:16.954Z,-3.22
2023-01-19T04:39:16.687Z,-3.27
2023-01-19T04:40:17.175Z,-3.37
2023-01-19T04:41:16.678Z,-3.41
2023-01-19T04:42:16.431Z,-3.43
2023-01-19T04:43:16.915Z,-3.46
2023-01-19T04:44:16.411Z,-3.58
2023-01-19T04:45:16.929Z,-3.63
2023-01-19T04:46:16.544Z,-3.65
2023-01-19T04:47:17.115Z,-3.65
2023-01-19T04:48:16.646Z,-3.67
2023-01-19T04:49:17.161Z,-3.64
2023-01-19T04:50:16.723Z,-3.63
2023-01-19T04:51:17.258Z,-3.63
2023-01-19T04:52:16.876Z,-3.64
2023-01-19T04:53:16.382Z,-3.70
2023-01-19T04:54:16.960Z,-3.67
2023-01-19T04:55:16.511Z,-3.68
2023-01-19T04:56:17.018Z,-3.67
2023-01-19T04:57:16.505Z,-3.68
2023-01-19T04:58:16.987Z,-3.67
2023-01-19T04:59:16.475Z,-3.70
2023-01-19T05:00:16.986Z,-3.71
2023-01-19T05:01:16.546Z,-3.75
2023-01-19T05:02:17.177Z,-3.80
2023-01-19T05:03:16.740Z,-3.78
2023-01-19T05:04:16.390Z,-3.87
2023-01-19T05:05:16.897Z,-3.89
2023-01-19T05:06:16.387Z,-3.91
2023-01-19T05:07:16.899Z,-3.91
2023-01-19T05:08:16.375Z,-3.87
2023-01-19T05:09:16.876Z,-3.88
2023-01-19T05:10:16.381Z,-3.95
2023-01-19T05:11:16.875Z,-4.05
2023-01-19T05:12:16.720Z,-4.08
2023-01-19T05:13:17.235Z,-3.98
2023-01-19T05:14:16.738Z,-3.82
2023-01-19T05:15:17.258Z,-3.87
2023-01-19T05:16:16.824Z,-3.94
2023-01-19T05:17:16.408Z,-4.02
2023-01-19T05:18:16.940Z,-4.06
2023-01-19T05:19:16.459Z,-4.10
2023-01-19T05:20:16.954Z,-4.15
2023-01-19T05:21:16.603Z,-4.22
2023-01-19T05:22:16.799Z,-4.26
2023-01-19T05:23:17.307Z,-4.27
2023-01-19T05:24:16.835Z,-4.27
2023-01-19T05:25:16.343Z,-4.29
2023-01-19T05:26:16.846Z,-4.27
2023-01-19T05:27:16.356Z,-4.29
2023-01-19T05:28:16.857Z,-4.23
2023-01-19T05:29:16.358Z,-4.25
2023-01-19T05:30:16.844Z,-4.16
2023-01-19T05:31:18.535Z,-4.15
2023-01-19T05:32:16.778Z,-4.15
2023-01-19T05:33:17.272Z,-4.15
2023-01-19T05:34:16.808Z,-4.10
2023-01-19T05:35:16.633Z,-4.13
2023-01-19T05:36:17.079Z,-4.16
2023-01-19T05:37:16.573Z,-4.17
2023-01-19T05:38:18.864Z,-4.17
2023-01-19T05:39:16.376Z,-4.19
2023-01-19T05:40:16.984Z,-4.17
2023-01-19T05:41:16.543Z,-4.15
2023-01-19T05:42:16.935Z,-4.16
2023-01-19T05:43:16.430Z,-4.16
2023-01-19T05:44:16.938Z,-4.15
2023-01-19T05:45:16.458Z,-4.15
2023-01-19T05:46:17.031Z,-4.15
2023-01-19T05:47:16.561Z,-4.12
2023-01-19T05:48:17.070Z,-4.03
2023-01-19T05:49:16.561Z,-3.98
2023-01-19T05:50:17.052Z,-3.94
2023-01-19T05:51:16.570Z,-3.97
2023-01-19T05:52:16.896Z,-3.94
2023-01-19T05:53:16.388Z,-3.95
2023-01-19T05:54:16.878Z,-3.95
2023-01-19T05:55:16.386Z,-3.97
2023-01-19T05:56:16.908Z,-3.95
2023-01-19T05:57:16.457Z,-3.92
2023-01-19T05:58:17.188Z,-3.89
2023-01-19T05:59:16.670Z,-3.91
2023-01-19T06:00:16.369Z,-3.89
2023-01-19T06:01:16.896Z,-3.85
2023-01-19T06:02:16.856Z,-3.72
2023-01-19T06:03:16.597Z,-3.67
2023-01-19T06:04:17.178Z,-3.68
2023-01-19T06:05:16.716Z,-3.68
2023-01-19T06:06:17.235Z,-3.65
2023-01-19T06:07:16.755Z,-3.58
2023-01-19T06:08:17.268Z,-3.54
2023-01-19T06:09:16.790Z,-3.55
2023-01-19T06:10:16.339Z,-3.55
2023-01-19T06:11:16.897Z,-3.51
2023-01-19T06:12:16.567Z,-3.51
2023-01-19T06:13:17.066Z,-3.53
2023-01-19T06:14:16.557Z,-3.54
2023-01-19T06:15:17.095Z,-3.53
2023-01-19T06:16:16.665Z,-3.57
2023-01-19T06:17:17.207Z,-3.63
2023-01-19T06:18:16.710Z,-3.67
2023-01-19T06:19:17.208Z,-3.77
2023-01-19T06:20:16.719Z,-3.85
2023-01-19T06:21:17.307Z,-3.91
2023-01-19T06:22:16.644Z,-3.92
2023-01-19T06:23:17.169Z,-3.89
2023-01-19T06:24:16.665Z,-3.84
2023-01-19T06:25:17.232Z,-3.85
2023-01-19T06:26:16.742Z,-3.82
2023-01-19T06:27:17.231Z,-3.87
2023-01-19T06:28:16.711Z,-3.84
2023-01-19T06:29:17.223Z,-3.82
2023-01-19T06:30:16.709Z,-3.84
2023-01-19T06:31:17.401Z,-3.88
2023-01-19T06:32:16.926Z,-3.98
2023-01-19T06:33:16.431Z,-3.98
2023-01-19T06:34:16.933Z,-3.98
2023-01-19T06:35:16.415Z,-3.97
2023-01-19T06:36:16.977Z,-3.94
2023-01-19T06:37:16.493Z,-3.95
2023-01-19T06:38:17.335Z,-3.97
2023-01-19T06:39:16.835Z,-3.87
2023-01-19T06:40:16.374Z,-3.85
2023-01-19T06:41:16.860Z,-3.87
2023-01-19T06:42:16.474Z,-3.89
2023-01-19T06:43:16.967Z,-3.91
2023-01-19T06:44:16.462Z,-3.94
2023-01-19T06:45:17.040Z,-3.98
2023-01-19T06:46:16.638Z,-4.01
2023-01-19T06:47:17.255Z,-3.91
2023-01-19T06:48:16.934Z,-4.03
2023-01-19T06:49:16.439Z,-4.08
2023-01-19T06:50:16.971Z,-4.03
2023-01-19T06:51:16.472Z,-4.02
2023-01-19T06:52:16.349Z,-3.99
2023-01-19T06:53:16.989Z,-3.97
2023-01-19T06:54:16.519Z,-3.92
2023-01-19T06:55:17.207Z,-3.78
2023-01-19T06:56:16.457Z,-3.68
2023-01-19T06:57:16.444Z,-3.65
2023-01-19T06:58:16.974Z,-3.77
2023-01-19T06:59:16.503Z,-4.01
2023-01-19T07:00:17.033Z,-4.01
2023-01-19T07:01:16.570Z,-3.97
2023-01-19T07:02:27.081Z,-4.03
2023-01-19T07:03:16.348Z,-4.06
2023-01-19T07:04:16.958Z,-4.05
2023-01-19T07:05:16.469Z,-4.02
2023-01-19T07:06:16.964Z,-4.01
2023-01-19T07:07:16.479Z,-4.03
2023-01-19T07:08:17.000Z,-4.02
2023-01-19T07:09:16.958Z,-4.02
2023-01-19T07:10:16.509Z,-4.02
2023-01-19T07:11:21.892Z,-4.01
2023-01-19T07:12:16.473Z,-3.99
2023-01-19T07:13:16.985Z,-4.02
2023-01-19T07:14:16.739Z,-3.99
2023-01-19T07:15:17.261Z,-3.98
2023-01-19T07:16:16.914Z,-3.95
2023-01-19T07:17:16.488Z,-3.89
2023-01-19T07:18:17.024Z,-3.91
2023-01-19T07:19:16.518Z,-3.89
2023-01-19T07:20:17.022Z,-3.89
2023-01-19T07:21:16.520Z,-3.88
2023-01-19T07:22:16.420Z,-3.94
2023-01-19T07:23:16.886Z,-3.87
2023-01-19T07:24:16.389Z,-3.85
2023-01-19T07:25:16.878Z,-3.87
2023-01-19T07:26:16.434Z,-3.88
2023-01-19T07:27:16.924Z,-3.85
2023-01-19T07:28:16.436Z,-3.94
2023-01-19T07:29:16.944Z,-3.97
2023-01-19T07:30:16.432Z,-3.97
2023-01-19T07:31:17.106Z,-3.98
2023-01-19T07:32:17.288Z,-3.97
2023-01-19T07:33:16.777Z,-3.88
2023-01-19T07:34:17.274Z,-3.98
2023-01-19T07:35:16.799Z,-3.98
2023-01-19T07:36:17.327Z,-3.98
2023-01-19T07:37:16.823Z,-4.06
2023-01-19T07:38:16.313Z,-4.06
2023-01-19T07:39:16.810Z,-4.10
2023-01-19T07:40:17.313Z,-4.13
2023-01-19T07:41:16.830Z,-4.10
2023-01-19T07:42:17.136Z,-4.06
2023-01-19T07:43:16.622Z,-4.06
2023-01-19T07:44:17.126Z,-4.02
2023-01-19T07:45:16.663Z,-4.01
2023-01-19T07:46:17.306Z,-4.02
2023-01-19T07:47:16.867Z,-4.05
2023-01-19T07:48:16.390Z,-4.02
2023-01-19T07:49:16.915Z,-3.98
2023-01-19T07:50:16.434Z,-3.95
2023-01-19T07:51:16.932Z,-3.91
2023-01-19T07:52:16.501Z,-3.91
2023-01-19T07:53:17.042Z,-3.92
2023-01-19T07:54:16.672Z,-3.85
2023-01-19T07:55:17.191Z,-3.94
2023-01-19T07:56:16.738Z,-3.91
2023-01-19T07:57:17.263Z,-3.88
2023-01-19T07:58:16.758Z,-3.87
2023-01-19T07:59:17.238Z,-3.84
2023-01-19T08:00:16.820Z,-3.80
2023-01-19T08:01:16.416Z,-3.75
2023-01-19T08:02:17.424Z,-3.72
2023-01-19T08:03:17.074Z,-3.70
2023-01-19T08:04:16.650Z,-3.67
2023-01-19T08:05:17.230Z,-3.64
2023-01-19T08:06:16.785Z,-3.63
2023-01-19T08:07:16.348Z,-3.58
2023-01-19T08:08:16.889Z,-3.57
2023-01-19T08:09:16.394Z,-3.55
2023-01-19T08:10:16.947Z,-3.47
2023-01-19T08:11:16.446Z,-3.48
2023-01-19T08:12:16.930Z,-3.44
2023-01-19T08:13:16.459Z,-3.43
2023-01-19T08:14:16.951Z,-3.43
2023-01-19T08:15:16.462Z,-3.40
2023-01-19T08:16:16.990Z,-3.40
2023-01-19T08:17:16.535Z,-3.29
2023-01-19T08:18:17.099Z,-3.25
2023-01-19T08:19:16.602Z,-3.20
2023-01-19T08:20:17.107Z,-3.13
2023-01-19T08:21:16.697Z,-3.08
2023-01-19T08:22:16.343Z,-2.97
2023-01-19T08:23:16.852Z,-2.95
2023-01-19T08:24:16.372Z,-2.97
2023-01-19T08:25:16.927Z,-2.91
2023-01-19T08:26:16.462Z,-2.88
2023-01-19T08:27:16.958Z,-2.88
2023-01-19T08:28:16.502Z,-2.90
2023-01-19T08:29:17.064Z,-2.82
2023-01-19T08:30:16.590Z,-2.80
2023-01-19T08:31:20.957Z,-2.70
2023-01-19T08:32:16.884Z,-2.60
2023-01-19T08:33:16.651Z,-2.59
2023-01-19T08:34:17.150Z,-2.54
2023-01-19T08:35:16.693Z,-2.46
2023-01-19T08:36:17.186Z,-2.38
2023-01-19T08:37:16.691Z,-2.38
2023-01-19T08:38:17.227Z,-2.32
2023-01-19T08:39:16.753Z,-2.28
2023-01-19T08:40:17.281Z,-2.29
2023-01-19T08:41:16.770Z,-2.00
2023-01-19T08:42:16.391Z,-1.73
2023-01-19T08:43:16.931Z,-1.70
2023-01-19T08:44:16.517Z,-1.66
2023-01-19T08:45:17.019Z,-1.56
2023-01-19T08:46:16.576Z,-1.56
2023-01-19T08:47:17.178Z,-1.56
2023-01-19T08:48:16.836Z,-1.66
2023-01-19T08:49:16.406Z,-1.66
2023-01-19T08:50:16.913Z,-1.63
2023-01-19T08:51:16.400Z,-1.59
2023-01-19T08:52:17.023Z,-1.64
2023-01-19T08:53:16.538Z,-1.69
2023-01-19T08:54:18.509Z,-1.64
2023-01-19T08:55:17.264Z,-1.64
2023-01-19T08:56:18.033Z,-1.59
2023-01-19T08:57:17.072Z,-1.58
2023-01-19T08:58:16.592Z,-1.52
2023-01-19T08:59:17.111Z,-1.49
2023-01-19T09:00:16.655Z,-1.53
2023-01-19T09:01:17.319Z,-1.67
2023-01-19T09:02:16.815Z,-1.72
2023-01-19T09:03:16.430Z,-1.74
2023-01-19T09:04:17.031Z,-1.74
2023-01-19T09:05:16.659Z,-1.72
2023-01-19T09:06:17.138Z,-1.56
2023-01-19T09:07:16.629Z,-1.53
2023-01-19T09:08:17.182Z,-1.51
2023-01-19T09:09:16.763Z,-1.48
2023-01-19T09:10:17.288Z,-1.48
2023-01-19T09:11:16.769Z,-1.45
2023-01-19T09:12:16.474Z,-1.49
2023-01-19T09:13:16.989Z,-1.44
2023-01-19T09:14:16.552Z,-1.36
2023-01-19T09:15:17.157Z,-1.24
2023-01-19T09:16:16.689Z,-1.16
2023-01-19T09:17:17.244Z,-1.06
2023-01-19T09:18:16.742Z,-1.04
2023-01-19T09:19:17.256Z,-1.01
2023-01-19T09:20:16.787Z,-1.04
2023-01-19T09:21:16.698Z,-0.96
2023-01-19T09:22:16.668Z,-0.80
2023-01-19T09:23:17.197Z,-0.61
2023-01-19T09:24:16.749Z,-0.61
2023-01-19T09:25:17.249Z,-0.54
2023-01-19T09:26:16.781Z,-0.39
2023-01-19T09:27:16.338Z,-0.27
2023-01-19T09:28:16.845Z,0.05
2023-01-19T09:29:16.395Z,0.24
2023-01-19T09:30:16.870Z,0.28
2023-01-19T09:31:16.524Z,0.32
2023-01-19T09:32:16.926Z,0.29
2023-01-19T09:33:16.480Z,0.38
2023-01-19T09:34:16.984Z,0.43
2023-01-19T09:35:16.508Z,0.35
2023-01-19T09:36:17.142Z,0.24
2023-01-19T09:37:16.638Z,0.13
2023-01-19T09:38:17.142Z,-0.06
2023-01-19T09:39:16.646Z,-0.14
2023-01-19T09:40:17.165Z,-0.19
2023-01-19T09:41:16.711Z,-0.19
2023-01-19T09:42:17.301Z,-0.11
2023-01-19T09:43:16.789Z,0.02
2023-01-19T09:44:17.276Z,0.11
2023-01-19T09:45:16.768Z,0.17
2023-01-19T09:46:16.405Z,0.10
2023-01-19T09:47:17.039Z,0.05
2023-01-19T09:48:16.542Z,-0.10
2023-01-19T09:49:17.079Z,-0.02
2023-01-19T09:50:16.608Z,-0.19
2023-01-19T09:51:17.111Z,-0.16
2023-01-19T09:52:16.452Z,-0.09
2023-01-19T09:53:16.962Z,0.02
2023-01-19T09:54:16.471Z,0.02
2023-01-19T09:55:16.980Z,-0.07
2023-01-19T09:56:16.485Z,-0.00
2023-01-19T09:57:16.996Z,-0.11
2023-01-19T09:58:16.502Z,-0.07
2023-01-19T09:59:16.984Z,-0.05
2023-01-19T10:00:16.513Z,0.02
2023-01-19T10:01:17.144Z,0.07
2023-01-19T10:02:16.663Z,0.14
2023-01-19T10:03:17.257Z,0.15
2023-01-19T10:04:16.847Z,0.14
2023-01-19T10:05:16.360Z,0.15
2023-01-19T10:06:16.871Z,0.20
2023-01-19T10:07:16.576Z,0.10
2023-01-19T10:08:17.103Z,0.02
2023-01-19T10:09:16.607Z,0.11
2023-01-19T10:10:17.096Z,0.20
2023-01-19T10:11:16.611Z,0.22
2023-01-19T10:12:17.899Z,0.20
2023-01-19T10:13:17.279Z,0.22
2023-01-19T10:14:16.775Z,0.25
2023-01-19T10:15:17.295Z,0.21
2023-01-19T10:16:16.811Z,0.24
2023-01-19T10:17:16.448Z,0.18
2023-01-19T10:18:16.958Z,0.28
2023-01-19T10:19:16.462Z,0.35
2023-01-19T10:20:16.997Z,0.21
2023-01-19T10:21:16.516Z,0.14
2023-01-19T10:22:17.204Z,0.21
2023-01-19T10:23:16.752Z,0.22
2023-01-19T10:24:17.248Z,0.31
2023-01-19T10:25:16.820Z,0.25
2023-01-19T10:26:16.467Z,0.35
2023-01-19T10:27:16.991Z,0.45
2023-01-19T10:28:16.507Z,0.45
2023-01-19T10:29:17.072Z,0.45
2023-01-19T10:30:16.591Z,0.29
2023-01-19T10:31:17.214Z,0.25
2023-01-19T10:32:16.766Z,0.22
2023-01-19T10:33:17.305Z,0.32
2023-01-19T10:34:19.508Z,0.31
2023-01-19T10:35:17.058Z,0.24
2023-01-19T10:36:16.661Z,0.25
2023-01-19T10:37:17.224Z,0.34
2023-01-19T10:38:16.765Z,0.38
2023-01-19T10:39:17.278Z,0.46
2023-01-19T10:40:16.923Z,0.39
2023-01-19T10:41:16.528Z,0.36
2023-01-19T10:42:17.028Z,0.35
2023-01-19T10:43:16.547Z,0.38
2023-01-19T10:44:17.108Z,0.39
2023-01-19T10:45:16.669Z,0.34
2023-01-19T10:46:17.372Z,0.28
2023-01-19T10:47:16.974Z,0.32
2023-01-19T10:48:16.508Z,0.34
2023-01-19T10:49:17.193Z,0.35
2023-01-19T10:50:16.767Z,0.31
2023-01-19T10:51:17.363Z,0.34
2023-01-19T10:52:18.861Z,0.32
2023-01-19T10:53:16.560Z,0.32
2023-01-19T10:54:17.139Z,0.32
2023-01-19T10:55:16.769Z,0.32
2023-01-19T10:56:17.309Z,0.39
2023-01-19T10:57:16.803Z,0.43
2023-01-19T10:58:17.680Z,0.48
2023-01-19T10:59:16.484Z,0.42
2023-01-19T11:00:17.046Z,0.38
2023-01-19T11:01:16.731Z,0.39
2023-01-19T11:02:16.626Z,0.36
2023-01-19T11:03:16.577Z,0.36
2023-01-19T11:04:17.245Z,0.39
2023-01-19T11:05:16.757Z,0.41
2023-01-19T11:06:17.279Z,0.41
2023-01-19T11:07:16.790Z,0.38
2023-01-19T11:08:17.291Z,0.38
2023-01-19T11:09:16.766Z,0.41
2023-01-19T11:10:17.464Z,0.45
2023-01-19T11:11:16.497Z,0.48
2023-01-19T11:12:16.455Z,0.48
2023-01-19T11:13:16.967Z,0.51
2023-01-19T11:14:16.496Z,0.53
2023-01-19T11:15:17.023Z,0.55
2023-01-19T11:16:16.587Z,0.52
2023-01-19T11:17:17.160Z,0.53
2023-01-19T11:18:16.654Z,0.52
2023-01-19T11:19:17.154Z,0.52
2023-01-19T11:20:16.694Z,0.55
2023-01-19T11:21:16.427Z,0.57
2023-01-19T11:22:17.034Z,0.56
2023-01-19T11:23:16.570Z,0.59
2023-01-19T11:24:17.053Z,0.64
2023-01-19T11:25:16.567Z,0.64
2023-01-19T11:26:17.051Z,0.64
2023-01-19T11:27:16.563Z,0.59
2023-01-19T11:28:17.062Z,0.57
2023-01-19T11:29:16.685Z,0.56
2023-01-19T11:30:17.208Z,0.59
2023-01-19T11:31:17.041Z,0.66
2023-01-19T11:32:16.318Z,0.69
2023-01-19T11:33:16.848Z,0.77
2023-01-19T11:34:16.330Z,0.73
2023-01-19T11:35:16.824Z,0.73
2023-01-19T11:36:16.351Z,0.76
2023-01-19T11:37:16.874Z,0.79
2023-01-19T11:38:16.368Z,0.76
2023-01-19T11:39:16.942Z,0.76
2023-01-19T11:40:16.440Z,0.76
2023-01-19T11:41:16.954Z,0.74
2023-01-19T11:42:16.584Z,0.77
2023-01-19T11:43:17.065Z,0.88
2023-01-19T11:44:16.595Z,0.90
2023-01-19T11:45:17.168Z,0.94
2023-01-19T11:46:16.693Z,0.91
2023-01-19T11:47:17.289Z,0.87
2023-01-19T11:48:16.837Z,0.87
2023-01-19T11:49:16.349Z,0.98
2023-01-19T11:50:16.901Z,0.97
2023-01-19T11:51:16.449Z,0.85
2023-01-19T11:52:16.891Z,0.87
2023-01-19T11:53:16.401Z,0.91
2023-01-19T11:54:16.966Z,0.92
2023-01-19T11:55:16.470Z,0.91
2023-01-19T11:56:17.009Z,0.95
2023-01-19T11:57:16.603Z,0.97
2023-01-19T11:58:17.127Z,1.01
2023-01-19T11:59:16.656Z,1.01
2023-01-19T12:00:17.168Z,0.99
2023-01-19T12:01:16.733Z,0.99
2023-01-19T12:02:17.280Z,0.99
2023-01-19T12:03:17.076Z,1.01
2023-01-19T12:04:16.744Z,1.07
2023-01-19T12:05:17.260Z,1.08
2023-01-19T12:06:16.775Z,1.08
2023-01-19T12:07:17.303Z,1.07
2023-01-19T12:08:16.804Z,1.04
2023-01-19T12:09:16.356Z,1.05
2023-01-19T12:10:16.858Z,1.07
2023-01-19T12:11:16.375Z,1.07
2023-01-19T12:12:16.965Z,1.07
2023-01-19T12:13:16.504Z,1.07
2023-01-19T12:14:17.058Z,1.05
2023-01-19T12:15:16.610Z,1.08
2023-01-19T12:16:17.172Z,1.04
2023-01-19T12:17:16.692Z,1.04
2023-01-19T12:18:17.179Z,1.08
2023-01-19T12:19:16.669Z,1.07
2023-01-19T12:20:17.194Z,1.02
2023-01-19T12:21:16.723Z,1.14
2023-01-19T12:22:17.180Z,1.16
2023-01-19T12:23:16.730Z,1.21
2023-01-19T12:24:17.317Z,1.15
2023-01-19T12:25:16.849Z,1.12
2023-01-19T12:26:16.355Z,1.04
2023-01-19T12:27:16.861Z,1.02
2023-01-19T12:28:16.366Z,1.05
2023-01-19T12:29:16.848Z,1.04
2023-01-19T12:30:16.336Z,1.04
2023-01-19T12:31:16.955Z,1.05
2023-01-19T12:32:17.194Z,0.99
2023-01-19T12:33:16.739Z,0.98
2023-01-19T12:34:17.283Z,0.99
2023-01-19T12:35:16.780Z,0.99
2023-01-19T12:36:17.414Z,1.01
2023-01-19T12:37:16.942Z,0.98
2023-01-19T12:38:16.438Z,1.02
2023-01-19T12:39:16.941Z,1.07
2023-01-19T12:40:16.643Z,1.09
2023-01-19T12:41:17.149Z,1.05
2023-01-19T12:42:16.619Z,1.01
2023-01-19T12:43:17.138Z,0.98
2023-01-19T12:44:16.707Z,0.98
2023-01-19T12:45:17.244Z,0.95
2023-01-19T12:46:16.921Z,0.97
2023-01-19T12:47:16.507Z,0.99
2023-01-19T12:48:17.096Z,1.09
2023-01-19T12:49:16.669Z,1.09
2023-01-19T12:50:17.215Z,1.11
2023-01-19T12:51:16.801Z,1.14
2023-01-19T12:52:16.912Z,1.14
2023-01-19T12:53:16.515Z,1.22
2023-01-19T12:54:17.057Z,1.26
2023-01-19T12:55:16.552Z,1.25
2023-01-19T12:56:17.096Z,1.26
2023-01-19T12:57:16.582Z,1.28
2023-01-19T12:58:17.104Z,1.35
2023-01-19T12:59:16.584Z,1.38